Time;durP1;ratioP1;P1;durP2;ratioP2;P2;SDS_P1;SDS_P2;PMS_P1;PMS_P2;Temp;Humidity;BMP_temperature;BMP_pressure;BME280_temperature;BME280_humidity;BME280_pressure;Samples;Min_cycle;Max_cycle;Signal;HPM_P1;HPM_P2
2023/12/15 00:02:47;;;;;;;1.80;0.60;;;;;;;22.12;34.77;94846.97;6157041;28;109915;-60
2023/12/15 00:05:50;;;;;;;1.10;0.53;;;;;;;22.13;35.12;94847.75;6147595;28;109143;-60
2023/12/15 00:08:55;;;;;;;1.20;0.67;;;;;;;22.13;34.63;94837.88;6152921;28;109559;-60
2023/12/15 00:11:58;;;;;;;1.90;0.77;;;;;;;22.13;34.82;94845.09;6144675;28;109017;-60
2023/12/15 00:15:01;;;;;;;1.60;0.60;;;;;;;22.11;34.83;94840.84;6132364;28;109422;-60
2023/12/15 00:18:04;;;;;;;1.80;0.70;;;;;;;22.13;35.10;94847.75;6156738;28;109299;-60
2023/12/15 00:21:07;;;;;;;1.60;0.70;;;;;;;22.13;34.71;94842.44;6159679;28;109381;-59
2023/12/15 00:24:12;;;;;;;2.80;0.80;;;;;;;22.13;34.62;94853.88;6153144;28;110002;-59
2023/12/15 00:27:15;;;;;;;2.60;0.50;;;;;;;22.14;34.84;94860.78;6146005;28;109765;-59
2023/12/15 00:30:18;;;;;;;1.83;0.60;;;;;;;22.13;34.70;94861.88;6160202;28;108536;-61
2023/12/15 00:33:22;;;;;;;1.10;0.53;;;;;;;22.13;34.54;94867.19;6161085;28;109712;-59
2023/12/15 00:36:25;;;;;;;1.20;0.50;;;;;;;22.11;35.11;94859.50;6160481;28;109001;-59
2023/12/15 00:39:30;;;;;;;1.23;0.53;;;;;;;22.13;34.81;94866.41;6132810;28;109688;-60
2023/12/15 00:42:33;;;;;;;1.70;0.50;;;;;;;22.15;34.58;94864.22;6136959;28;110128;-60
2023/12/15 00:45:36;;;;;;;1.87;0.40;;;;;;;22.17;34.70;94875.34;6152979;28;109214;-59
2023/12/15 00:48:39;;;;;;;1.50;0.80;;;;;;;22.16;34.63;94877.22;6143708;28;109210;-60
2023/12/15 00:51:43;;;;;;;1.30;0.50;;;;;;;22.17;34.70;94878.81;6134343;28;109152;-59
2023/12/15 00:54:47;;;;;;;2.70;0.70;;;;;;;22.19;34.71;94892.63;6136674;28;109113;-59
2023/12/15 00:57:50;;;;;;;1.30;0.53;;;;;;;22.18;34.86;94888.41;6152124;28;109142;-59
2023/12/15 01:00:53;;;;;;;1.67;0.80;;;;;;;22.18;34.84;94892.91;6149908;28;109265;-59
2023/12/15 01:03:56;;;;;;;1.50;0.60;;;;;;;22.17;34.71;94897.47;6159667;28;109949;-61
2023/12/15 01:06:59;;;;;;;1.80;0.80;;;;;;;22.16;34.71;94900.44;6160515;28;110387;-59
2023/12/15 01:10:05;;;;;;;1.63;0.50;;;;;;;22.18;35.07;94899.06;6138637;28;109018;-60
2023/12/15 01:13:08;;;;;;;1.23;0.50;;;;;;;22.18;35.14;94892.91;6132533;28;112094;-60
2023/12/15 01:16:11;;;;;;;1.67;0.50;;;;;;;22.18;35.27;94892.91;6159453;28;109353;-59
2023/12/15 01:19:15;;;;;;;2.17;0.50;;;;;;;22.17;35.29;94894.00;6159136;28;109239;-59
2023/12/15 01:22:18;;;;;;;1.40;0.70;;;;;;;22.17;34.99;94899.34;6154977;28;109973;-59
2023/12/15 01:25:22;;;;;;;1.23;0.60;;;;;;;22.15;35.25;94898.88;6138008;28;108910;-60
2023/12/15 01:28:26;;;;;;;1.40;0.63;;;;;;;22.16;35.31;94905.75;6135552;28;109015;-60
2023/12/15 01:31:29;;;;;;;1.20;0.50;;;;;;;22.14;35.12;94910.63;6149306;28;109156;-59
2023/12/15 01:34:32;;;;;;;1.17;0.33;;;;;;;22.14;35.07;94922.06;6147734;28;109689;-59
2023/12/15 01:37:35;;;;;;;1.20;0.50;;;;;;;22.13;34.92;94909.06;6148873;28;109053;-60
2023/12/15 01:40:40;;;;;;;1.07;0.30;;;;;;;22.15;35.19;94914.84;6147696;28;109367;-61
2023/12/15 01:43:43;;;;;;;1.37;0.33;;;;;;;22.15;34.85;94920.19;6150925;28;108925;-60
2023/12/15 01:46:46;;;;;;;0.93;0.40;;;;;;;22.14;34.86;94923.94;6139655;28;109596;-59
2023/12/15 01:49:50;;;;;;;1.10;0.40;;;;;;;22.13;34.89;94920.50;6149245;28;110332;-60
2023/12/15 01:52:53;;;;;;;1.37;0.40;;;;;;;22.13;35.10;94917.84;6151514;28;109085;-60
2023/12/15 01:55:57;;;;;;;1.30;0.60;;;;;;;22.15;35.29;94928.97;6140498;28;109241;-60
2023/12/15 01:59:00;;;;;;;1.10;0.40;;;;;;;22.14;35.09;94930.06;6146460;28;109222;-59
2023/12/15 02:02:04;;;;;;;1.07;0.40;;;;;;;22.13;35.20;94925.03;6154714;28;110122;-60
2023/12/15 02:05:07;;;;;;;1.40;0.50;;;;;;;22.11;34.94;94920.81;6148128;28;109180;-60
2023/12/15 02:08:11;;;;;;;1.63;0.50;;;;;;;22.15;35.03;94920.19;6135799;28;109124;-60
2023/12/15 02:11:16;;;;;;;1.30;0.43;;;;;;;22.16;35.28;94929.75;6152457;28;109157;-60
2023/12/15 02:14:19;;;;;;;1.10;0.53;;;;;;;22.13;35.28;94928.50;6149482;28;109096;-61
2023/12/15 02:17:22;;;;;;;1.20;0.40;;;;;;;22.15;34.77;94928.19;6146414;28;110496;-60
2023/12/15 02:20:26;;;;;;;0.90;0.30;;;;;;;22.14;34.72;94935.38;6147767;28;109201;-61
2023/12/15 02:23:30;;;;;;;1.10;0.40;;;;;;;22.14;35.19;94935.38;6160162;28;110379;-61
2023/12/15 02:26:33;;;;;;;1.10;0.43;;;;;;;22.15;35.14;94936.19;6158867;28;109386;-61
2023/12/15 02:29:37;;;;;;;1.57;0.50;;;;;;;22.15;34.98;94941.50;6145965;28;109096;-60
2023/12/15 02:32:40;;;;;;;1.37;0.50;;;;;;;22.15;34.86;94954.84;6129414;28;109581;-60
2023/12/15 02:35:47;;;;;;;1.30;0.40;;;;;;;22.14;35.11;94948.72;6161109;28;109562;-61
2023/12/15 02:38:52;;;;;;;1.00;0.30;;;;;;;22.15;34.77;94957.50;6163165;28;108949;-61
2023/12/15 02:41:55;;;;;;;1.20;0.50;;;;;;;22.13;35.29;94959.69;6157930;28;109291;-60
2023/12/15 02:44:58;;;;;;;0.90;0.23;;;;;;;22.14;35.13;94958.59;6152936;28;109128;-59
2023/12/15 02:48:01;;;;;;;1.00;0.30;;;;;;;22.13;34.66;94957.81;6164033;28;112564;-59
2023/12/15 02:51:05;;;;;;;1.30;0.60;;;;;;;22.13;34.72;94957.03;6140049;28;112124;-61
2023/12/15 02:54:09;;;;;;;0.97;0.30;;;;;;;22.13;34.88;94962.34;6151284;28;112076;-60
2023/12/15 02:57:12;;;;;;;0.80;0.30;;;;;;;22.14;35.27;94970.03;6142016;28;109109;-60
2023/12/15 03:00:15;;;;;;;1.00;0.33;;;;;;;22.15;35.01;94978.81;6154980;28;109254;-60
2023/12/15 03:03:19;;;;;;;1.50;0.50;;;;;;;22.15;35.05;94976.16;6163035;28;109404;-60
2023/12/15 03:06:22;;;;;;;0.90;0.30;;;;;;;22.14;35.07;94988.69;6150989;28;109080;-60
2023/12/15 03:09:26;;;;;;;1.00;0.37;;;;;;;22.16;34.93;94985.72;6162672;28;109307;-60
2023/12/15 03:12:30;;;;;;;1.13;0.50;;;;;;;22.15;35.30;94990.25;6163456;28;112943;-59
2023/12/15 03:15:33;;;;;;;0.80;0.30;;;;;;;22.15;35.36;94990.25;6162625;28;110501;-60
2023/12/15 03:18:36;;;;;;;5.23;0.50;;;;;;;22.15;34.69;94989.47;6148783;28;109454;-60
2023/12/15 03:21:39;;;;;;;1.07;0.40;;;;;;;22.16;34.89;94991.06;6139776;28;110703;-60
2023/12/15 03:24:44;;;;;;;1.03;0.40;;;;;;;22.14;35.25;94990.56;6144598;28;109270;-59
2023/12/15 03:27:47;;;;;;;1.13;0.40;;;;;;;22.14;35.42;94995.91;6154890;28;110616;-60
2023/12/15 03:30:50;;;;;;;1.30;0.60;;;;;;;22.14;34.96;94993.25;6156773;28;110036;-61
2023/12/15 03:33:54;;;;;;;1.63;0.80;;;;;;;22.13;34.85;94999.66;6159421;28;109256;-60
2023/12/15 03:36:57;;;;;;;1.00;0.40;;;;;;;22.13;35.43;95007.66;6154900;28;109389;-60
2023/12/15 03:40:03;;;;;;;1.40;0.60;;;;;;;22.13;35.38;95007.66;6142267;28;109064;-60
2023/12/15 03:43:06;;;;;;;1.57;0.43;;;;;;;22.12;35.03;94998.88;6150812;28;109122;-60
2023/12/15 03:46:09;;;;;;;1.97;0.47;;;;;;;22.14;34.97;95010.00;6159861;28;110110;-60
2023/12/15 03:49:12;;;;;;;1.17;0.50;;;;;;;22.15;35.03;95011.59;6155080;28;109101;-59
2023/12/15 03:52:15;;;;;;;4.20;0.70;;;;;;;22.16;35.41;95015.03;6129040;28;109169;-57
2023/12/15 03:55:20;;;;;;;1.97;0.50;;;;;;;22.30;34.62;95013.84;6147467;28;110880;-57
2023/12/15 03:58:23;;;;;;;1.67;0.80;;;;;;;22.36;34.93;95014.53;6150294;28;110069;-57
2023/12/15 04:01:26;;;;;;;2.50;1.27;;;;;;;22.41;34.90;95022.38;6156055;28;109133;-56
2023/12/15 04:04:29;;;;;;;1.77;0.70;;;;;;;22.41;34.30;95022.38;6144931;28;109614;-59
2023/12/15 04:07:32;;;;;;;1.10;0.60;;;;;;;22.27;34.92;95027.00;6162340;28;109152;-60
2023/12/15 04:10:39;;;;;;;2.60;0.80;;;;;;;22.23;35.10;95021.53;6161104;28;109175;-59
2023/12/15 04:13:42;;;;;;;1.43;0.90;;;;;;;22.21;35.68;95023.72;6151111;28;109393;-61
2023/12/15 04:16:45;;;;;;;2.00;1.00;;;;;;;22.19;35.77;95025.09;6150879;28;109624;-59
2023/12/15 04:19:48;;;;;;;2.40;1.20;;;;;;;22.20;35.35;95029.34;6157835;28;109286;-59
2023/12/15 04:22:51;;;;;;;3.63;1.37;;;;;;;22.20;35.51;95026.69;6161907;28;109279;-59
2023/12/15 04:25:58;;;;;;;2.70;1.30;;;;;;;22.18;35.74;95028.84;6141976;28;109178;-64
2023/12/15 04:29:01;;;;;;;2.50;1.20;;;;;;;22.17;35.92;95027.25;6153232;28;109078;-60
2023/12/15 04:32:05;;;;;;;2.30;1.50;;;;;;;22.14;35.88;95030.56;6158576;28;109060;-60
2023/12/15 04:35:09;;;;;;;2.43;1.33;;;;;;;22.16;35.90;95033.69;6157993;28;110211;-59
2023/12/15 04:38:12;;;;;;;5.30;4.90;;;;;;;21.19;35.06;95038.66;6147435;28;109624;-61
2023/12/15 04:41:21;;;;;;;5.70;5.30;;;;;;;20.13;35.80;95044.13;6136906;28;109160;-60
2023/12/15 04:44:24;;;;;;;6.37;5.87;;;;;;;20.30;35.55;95045.16;6147283;28;109140;-59
2023/12/15 04:47:27;;;;;;;6.20;5.70;;;;;;;20.43;35.00;95056.09;6155203;28;109236;-60
2023/12/15 04:50:31;;;;;;;5.60;5.10;;;;;;;20.85;35.05;95066.44;6154003;28;109323;-59
2023/12/15 04:53:36;;;;;;;6.03;4.30;;;;;;;21.30;34.45;95061.25;6142648;28;109252;-59
2023/12/15 04:56:41;;;;;;;6.93;4.27;;;;;;;21.67;33.86;95064.69;6154836;28;109886;-59
2023/12/15 04:59:44;;;;;;;4.00;3.70;;;;;;;21.98;33.77;95073.56;6141632;28;109220;-59
2023/12/15 05:02:47;;;;;;;3.30;3.00;;;;;;;22.02;34.29;95074.56;6146808;28;109124;-59
2023/12/15 05:05:50;;;;;;;4.70;3.47;;;;;;;22.00;34.15;95078.59;6152724;28;110197;-69
2023/12/15 05:08:55;;;;;;;3.47;3.10;;;;;;;22.22;34.30;95067.13;6159950;28;109304;-61
2023/12/15 05:12:00;;;;;;;5.43;2.90;;;;;;;22.34;34.15;95068.13;6149694;28;109178;-59
2023/12/15 05:15:04;;;;;;;3.00;2.70;;;;;;;22.39;34.47;95077.91;6158521;28;109087;-60
2023/12/15 05:18:07;;;;;;;4.00;3.60;;;;;;;22.41;34.92;95076.50;6158525;28;109574;-59
2023/12/15 05:21:10;;;;;;;4.27;2.90;;;;;;;22.22;35.24;95075.91;6132018;28;109133;-60
2023/12/15 05:24:13;;;;;;;5.07;3.00;;;;;;;22.11;34.85;95082.59;6132297;28;110068;-60
2023/12/15 05:27:18;;;;;;;3.07;2.60;;;;;;;22.07;35.05;95079.75;6155146;28;109266;-60
2023/12/15 05:30:21;;;;;;;3.10;2.47;;;;;;;22.04;35.13;95091.03;6160242;28;109124;-59
2023/12/15 05:33:25;;;;;;;3.93;2.83;;;;;;;21.99;35.37;95093.78;6147296;28;109506;-61
2023/12/15 05:36:28;;;;;;;2.83;2.50;;;;;;;21.97;35.09;95101.31;6136078;28;109060;-59
2023/12/15 05:39:31;;;;;;;2.63;2.33;;;;;;;21.96;35.30;95098.94;6146399;28;109551;-60
2023/12/15 05:42:37;;;;;;;4.00;3.20;;;;;;;22.00;35.10;95108.69;6160030;28;109288;-61
2023/12/15 05:45:40;;;;;;;3.70;2.40;;;;;;;22.01;34.91;95112.94;6150270;28;109519;-60
2023/12/15 05:48:44;;;;;;;4.40;3.07;;;;;;;22.02;35.31;95111.06;6159982;28;109130;-60
2023/12/15 05:51:48;;;;;;;2.57;2.37;;;;;;;22.02;34.78;95113.75;6160716;28;110162;-59
2023/12/15 05:54:51;;;;;;;2.70;2.23;;;;;;;22.01;34.80;95112.94;6147773;28;109740;-60
2023/12/15 05:57:55;;;;;;;2.87;2.57;;;;;;;21.99;35.20;95117.78;6149257;28;111545;-58
2023/12/15 06:00:58;;;;;;;3.60;2.63;;;;;;;22.00;34.96;95119.34;6138288;28;109555;-59
2023/12/15 06:04:01;;;;;;;2.70;2.50;;;;;;;22.01;34.75;95130.78;6141064;28;109358;-61
2023/12/15 06:07:05;;;;;;;2.57;2.37;;;;;;;22.00;35.11;95127.34;6156590;28;109568;-59
2023/12/15 06:10:10;;;;;;;2.90;2.50;;;;;;;21.99;35.18;95136.44;6148647;28;109154;-59
2023/12/15 06:13:15;;;;;;;2.63;2.43;;;;;;;21.99;34.85;95141.75;6139659;28;109101;-60
2023/12/15 06:16:19;;;;;;;3.07;2.20;;;;;;;21.98;35.13;95139.41;6139740;28;109424;-60
2023/12/15 06:19:23;;;;;;;2.50;2.20;;;;;;;22.00;34.98;95142.53;6129971;28;109267;-60
2023/12/15 06:22:26;;;;;;;3.20;2.57;;;;;;;21.95;35.30;95135.47;6139477;28;109385;-59
2023/12/15 06:25:29;;;;;;;3.40;2.70;;;;;;;21.92;35.28;95151.28;6152497;28;109081;-59
2023/12/15 06:28:34;;;;;;;3.17;2.50;;;;;;;21.91;35.27;95141.69;6139300;28;109315;-61
2023/12/15 06:31:37;;;;;;;3.10;2.80;;;;;;;21.98;35.22;95145.50;6130354;28;109125;-60
2023/12/15 06:34:42;;;;;;;3.13;2.43;;;;;;;22.00;35.18;95147.88;6147275;28;109110;-60
2023/12/15 06:37:45;;;;;;;2.90;2.67;;;;;;;22.00;35.11;95155.88;6163593;28;109377;-60
2023/12/15 06:40:48;;;;;;;3.60;2.47;;;;;;;22.14;35.32;95164.59;6159374;28;109203;-61
2023/12/15 06:43:53;;;;;;;3.13;2.40;;;;;;;22.24;36.53;95171.56;6155948;28;109090;-61
2023/12/15 06:46:56;;;;;;;2.73;2.53;;;;;;;22.32;35.91;95170.84;6139419;28;109060;-60
2023/12/15 06:49:59;;;;;;;3.00;2.70;;;;;;;22.28;35.01;95169.88;6149935;28;109249;-61
2023/12/15 06:53:02;;;;;;;3.77;2.63;;;;;;;22.15;35.63;95181.38;6152840;28;109112;-60
2023/12/15 06:56:06;;;;;;;2.40;2.20;;;;;;;22.06;35.59;95179.44;6151016;28;109589;-59
2023/12/15 06:59:11;;;;;;;2.37;2.17;;;;;;;22.02;35.54;95178.47;6159505;28;109114;-60
2023/12/15 07:02:15;;;;;;;3.17;2.80;;;;;;;21.99;35.37;95211.03;6139169;28;109063;-61
2023/12/15 07:05:18;;;;;;;2.30;2.10;;;;;;;21.97;35.74;95204.44;6127731;28;109084;-60
2023/12/15 07:08:21;;;;;;;3.57;2.70;;;;;;;21.95;35.18;95201.28;6138259;28;109161;-60
2023/12/15 07:11:24;;;;;;;4.37;2.80;;;;;;;21.94;35.59;95213.81;6159970;28;109260;-60
2023/12/15 07:14:29;;;;;;;2.60;2.40;;;;;;;21.92;35.16;95202.69;6162675;28;109308;-60
2023/12/15 07:17:32;;;;;;;3.00;2.43;;;;;;;21.92;35.25;95216.00;6155381;28;109183;-60
2023/12/15 07:20:35;;;;;;;2.50;2.30;;;;;;;21.92;35.35;95220.53;6162913;28;109112;-59
2023/12/15 07:23:38;;;;;;;2.57;2.23;;;;;;;21.90;35.42;95212.84;6162694;28;109094;-59
2023/12/15 07:26:41;;;;;;;2.30;2.10;;;;;;;21.90;35.47;95207.53;6142874;28;109480;-60
2023/12/15 07:29:46;;;;;;;2.30;2.10;;;;;;;21.92;35.01;95209.88;6155510;28;110291;-59
2023/12/15 07:32:49;;;;;;;2.97;2.50;;;;;;;21.96;35.09;95216.97;6138616;28;110206;-60
2023/12/15 07:35:52;;;;;;;2.83;2.60;;;;;;;21.94;34.84;95229.81;6137388;28;109159;-59
2023/12/15 07:38:56;;;;;;;2.77;2.30;;;;;;;21.94;34.99;95235.13;6128398;28;109222;-60
2023/12/15 07:41:59;;;;;;;3.00;2.63;;;;;;;21.94;35.32;95240.47;6138252;28;109122;-60
2023/12/15 07:45:04;;;;;;;4.80;3.00;;;;;;;21.95;34.86;95239.38;6138210;28;109235;-60
2023/12/15 07:48:07;;;;;;;3.13;2.80;;;;;;;22.02;34.79;95241.66;6138799;28;112846;-60
2023/12/15 07:51:16;;;;;;;3.53;3.23;;;;;;;22.03;34.82;95241.34;6128619;28;109176;-60
2023/12/15 07:54:19;;;;;;;2.53;2.33;;;;;;;22.03;35.12;95243.22;6137726;28;109279;-59
2023/12/15 07:57:22;;;;;;;2.80;2.60;;;;;;;22.02;35.08;95254.97;6138300;28;109242;-59
2023/12/15 08:00:27;;;;;;;2.70;2.37;;;;;;;22.02;35.37;95253.09;6143492;28;109567;-59
2023/12/15 08:03:30;;;;;;;2.93;2.73;;;;;;;22.02;35.35;95269.09;6156786;28;109428;-60
2023/12/15 08:06:36;;;;;;;2.47;2.27;;;;;;;22.02;35.48;95270.97;6161285;28;108915;-60
2023/12/15 08:09:40;;;;;;;2.50;2.30;;;;;;;22.03;35.36;95283.97;6161415;28;109119;-60
2023/12/15 08:12:43;;;;;;;3.07;2.77;;;;;;;22.03;34.95;95302.63;6152138;28;109082;-60
2023/12/15 08:15:47;;;;;;;2.67;2.47;;;;;;;22.02;35.47;95301.06;6161545;28;109198;-60
2023/12/15 08:18:50;;;;;;;3.20;2.90;;;;;;;22.02;34.97;95309.06;6161280;28;109572;-60
2023/12/15 08:21:53;;;;;;;3.07;2.77;;;;;;;22.02;35.08;95310.94;6162165;28;111394;-59
2023/12/15 08:24:56;;;;;;;2.90;2.60;;;;;;;22.04;35.30;95300.75;6151305;28;109661;-59
2023/12/15 08:28:02;;;;;;;3.00;2.70;;;;;;;22.02;35.37;95311.72;6140247;28;109058;-59
2023/12/15 08:31:07;;;;;;;3.27;2.97;;;;;;;22.01;35.13;95304.81;6137054;28;109468;-59
2023/12/15 08:34:10;;;;;;;2.57;2.37;;;;;;;22.01;34.86;95310.16;6132838;28;109547;-62
2023/12/15 08:37:13;;;;;;;2.77;2.47;;;;;;;22.01;35.35;95310.16;6130559;28;109065;-60
2023/12/15 08:40:16;;;;;;;3.00;2.70;;;;;;;22.17;35.56;95310.59;6137095;28;110132;-60
2023/12/15 08:43:19;;;;;;;4.03;2.90;;;;;;;22.24;34.98;95315.53;6137298;28;109528;-60
2023/12/15 08:46:24;;;;;;;3.73;3.33;;;;;;;22.13;35.33;95316.81;6127645;28;109080;-61
2023/12/15 08:49:27;;;;;;;3.27;2.97;;;;;;;22.07;34.90;95324.16;6136997;28;109244;-59
2023/12/15 08:52:31;;;;;;;3.97;3.00;;;;;;;22.04;35.22;95319.41;6136886;28;109149;-61
2023/12/15 08:55:34;;;;;;;3.43;3.13;;;;;;;21.99;35.73;95312.28;6136768;28;109324;-60
2023/12/15 08:58:37;;;;;;;3.13;2.83;;;;;;;21.97;35.45;95319.81;6126676;28;109140;-60
2023/12/15 09:01:41;;;;;;;3.87;3.10;;;;;;;21.95;34.92;95310.53;6153816;28;109230;-60
2023/12/15 09:04:45;;;;;;;3.83;2.77;;;;;;;21.96;35.25;95314.78;6159797;28;111837;-59
2023/12/15 09:08:04;;;;;;;4.80;3.20;;;;;;;21.95;35.39;95321.97;6135722;28;109192;-59
2023/12/15 09:11:07;;;;;;;3.30;2.73;;;;;;;21.95;35.39;95319.31;6137918;28;109191;-60
2023/12/15 09:14:10;;;;;;;3.33;3.03;;;;;;;21.94;35.19;95320.41;6159152;28;109237;-59
2023/12/15 09:17:15;;;;;;;2.83;2.63;;;;;;;21.94;35.45;95306.28;6158946;28;109285;-61
2023/12/15 09:20:18;;;;;;;3.43;3.10;;;;;;;21.93;35.38;95318.81;6149645;28;109517;-61
2023/12/15 09:23:21;;;;;;;5.67;3.30;;;;;;;21.94;35.16;95306.28;6158079;28;109110;-60
2023/12/15 09:26:24;;;;;;;3.60;3.10;;;;;;;21.93;35.01;95313.50;6158003;28;109093;-60
2023/12/15 09:29:28;;;;;;;3.47;2.80;;;;;;;21.95;35.27;95310.53;6158908;28;108878;-59
2023/12/15 09:32:33;;;;;;;4.67;2.90;;;;;;;21.96;34.81;95318.22;6148389;28;109188;-58
2023/12/15 09:35:36;;;;;;;3.37;2.80;;;;;;;21.98;35.23;95309.94;6158546;28;109610;-59
2023/12/15 09:38:40;;;;;;;3.57;2.93;;;;;;;21.96;35.20;95312.91;6158141;28;109125;-59
2023/12/15 09:41:43;;;;;;;3.30;3.00;;;;;;;21.97;34.94;95316.34;6163399;28;109068;-59
2023/12/15 09:44:47;;;;;;;4.17;3.77;;;;;;;21.96;34.87;95317.44;6153754;28;110175;-59
2023/12/15 09:48:08;;;;;;;3.10;2.80;;;;;;;21.96;34.99;95315.56;6163362;28;109050;-59
2023/12/15 09:51:16;;;;;;;4.00;3.63;;;;;;;21.95;34.70;95316.66;6152745;28;109449;-60
2023/12/15 09:54:21;;;;;;;3.80;3.50;;;;;;;21.95;34.62;95316.66;6129906;28;109334;-59
2023/12/15 09:57:25;;;;;;;4.17;3.77;;;;;;;21.95;34.63;95316.66;6152216;28;109178;-60
2023/12/15 10:00:29;;;;;;;3.60;3.30;;;;;;;21.95;34.97;95321.19;6162925;28;108773;-60
2023/12/15 10:03:34;;;;;;;4.10;3.40;;;;;;;21.95;35.17;95326.50;6163694;28;111811;-59
2023/12/15 10:06:38;;;;;;;3.33;3.03;;;;;;;21.95;35.39;95321.97;6152733;28;109994;-60
2023/12/15 10:09:41;;;;;;;3.20;2.90;;;;;;;21.94;35.57;95312.41;6107052;28;1600257;-59
2023/12/15 10:12:44;;;;;;;3.87;3.50;;;;;;;21.93;35.54;95329.47;6163654;28;109265;-60
2023/12/15 10:15:51;;;;;;;3.63;3.33;;;;;;;21.93;35.11;95324.16;6163295;28;109085;-59
2023/12/15 10:18:56;;;;;;;3.93;3.40;;;;;;;21.95;35.21;95335.28;6154100;28;109564;-59
2023/12/15 10:22:02;;;;;;;3.50;2.80;;;;;;;21.95;35.56;95331.84;6163230;28;109058;-60
2023/12/15 10:25:16;;;;;;;3.90;3.03;;;;;;;21.95;35.32;95332.63;6163766;28;109177;-59
2023/12/15 10:28:19;;;;;;;3.43;3.03;;;;;;;21.93;35.05;95340.13;6157205;28;109451;-60
2023/12/15 10:31:26;;;;;;;3.53;2.90;;;;;;;21.96;35.17;95344.88;6161194;28;109264;-59
2023/12/15 10:34:30;;;;;;;4.50;3.27;;;;;;;21.96;34.99;95338.75;6164132;28;110417;-60
2023/12/15 10:37:34;;;;;;;3.50;3.20;;;;;;;21.96;34.87;95341.41;6163584;28;110180;-60
2023/12/15 10:40:38;;;;;;;3.23;2.80;;;;;;;21.96;34.98;95334.22;6149282;28;109023;-60
2023/12/15 10:43:43;;;;;;;3.43;3.13;;;;;;;21.96;35.17;95336.88;6139558;28;110011;-60
2023/12/15 10:46:47;;;;;;;3.50;3.20;;;;;;;21.96;35.13;95347.53;6151451;28;110522;-59
2023/12/15 10:49:52;;;;;;;3.53;3.10;;;;;;;21.96;35.18;95338.75;6162756;28;109051;-60
2023/12/15 10:52:56;;;;;;;3.50;3.20;;;;;;;21.95;35.43;95345.16;6152938;28;111128;-59
2023/12/15 10:56:00;;;;;;;3.67;3.30;;;;;;;21.95;35.29;95356.63;6162912;28;108784;-60
2023/12/15 10:59:05;;;;;;;3.57;3.27;;;;;;;21.95;35.09;95356.63;6163116;28;109566;-59
2023/12/15 11:02:10;;;;;;;4.00;3.47;;;;;;;21.95;34.72;95358.50;6158532;28;108876;-60
2023/12/15 11:05:15;;;;;;;3.03;2.73;;;;;;;21.94;34.97;95362.25;6158136;28;111779;-60
2023/12/15 11:08:27;;;;;;;3.47;3.17;;;;;;;21.94;35.13;95360.38;6162948;28;112063;-60
2023/12/15 11:11:30;;;;;;;3.80;3.40;;;;;;;21.95;34.82;95369.94;6161864;28;109163;-59
2023/12/15 11:14:35;;;;;;;3.93;3.53;;;;;;;21.96;35.35;95349.41;6152426;28;109039;-60
2023/12/15 11:17:40;;;;;;;3.40;3.10;;;;;;;22.01;35.03;95351.97;6145348;28;110327;-59
2023/12/15 11:20:47;;;;;;;3.50;3.20;;;;;;;22.04;34.66;95352.19;6138505;28;110176;-62
2023/12/15 11:23:56;;;;;;;3.80;3.40;;;;;;;22.21;35.01;95350.78;6138777;28;109306;-61
2023/12/15 11:26:59;;;;;;;3.57;3.27;;;;;;;22.34;35.71;95363.28;6139704;28;109894;-61
2023/12/15 11:30:34;;;;;;;3.97;3.50;;;;;;;22.36;36.38;95374.47;6162273;28;109148;-60
2023/12/15 11:33:44;;;;;;;3.50;3.10;;;;;;;22.36;34.56;95385.13;6138646;28;109047;-59
2023/12/15 11:36:51;;;;;;;3.90;3.53;;;;;;;22.36;35.65;95385.91;6128653;28;110600;-60
2023/12/15 11:39:55;;;;;;;3.57;3.10;;;;;;;22.41;35.13;95393.00;6138077;28;110096;-60
2023/12/15 11:42:58;;;;;;;3.47;3.17;;;;;;;22.39;35.20;95389.84;6156377;28;109424;-59
2023/12/15 11:46:03;;;;;;;3.60;3.30;;;;;;;22.31;34.68;95396.66;6161611;28;109282;-61
2023/12/15 11:49:06;;;;;;;3.97;3.47;;;;;;;22.20;35.50;95394.53;6152238;28;109300;-60
2023/12/15 11:52:11;;;;;;;4.00;3.63;;;;;;;22.11;35.24;95399.75;6161795;28;109191;-60
2023/12/15 11:55:15;;;;;;;3.67;3.37;;;;;;;22.08;35.49;95395.81;6162483;28;110123;-59
2023/12/15 11:58:19;;;;;;;3.40;3.10;;;;;;;22.07;35.35;95396.09;6159371;28;109112;-59
2023/12/15 12:01:22;;;;;;;3.60;3.03;;;;;;;22.03;35.17;95397.78;6150744;28;109075;-60
2023/12/15 12:04:26;;;;;;;3.50;3.20;;;;;;;22.01;35.10;95395.41;6162017;28;109208;-59
2023/12/15 12:07:30;;;;;;;3.30;3.00;;;;;;;22.00;35.44;95398.34;6148086;28;109213;-60
2023/12/15 12:10:34;;;;;;;3.27;2.97;;;;;;;21.99;35.38;95404.78;6131891;28;109162;-59
2023/12/15 12:13:39;;;;;;;3.63;3.00;;;;;;;21.98;35.13;95403.97;6131459;28;109310;-60
2023/12/15 12:16:42;;;;;;;3.50;3.20;;;;;;;21.98;35.55;95403.19;6137586;28;109890;-60
2023/12/15 12:19:45;;;;;;;3.47;3.17;;;;;;;21.97;35.43;95407.72;6137702;28;108883;-60
2023/12/15 12:22:50;;;;;;;3.80;3.37;;;;;;;21.97;34.86;95402.41;6141849;28;109809;-60
2023/12/15 12:25:53;;;;;;;3.10;2.77;;;;;;;21.95;34.87;95412.56;6161255;28;109039;-60
2023/12/15 12:28:56;;;;;;;3.43;3.13;;;;;;;21.95;35.43;95422.44;6137076;28;109275;-59
2023/12/15 12:32:06;;;;;;;3.20;2.80;;;;;;;21.95;35.40;95423.22;6137566;28;110420;-60
2023/12/15 12:35:10;;;;;;;3.03;2.73;;;;;;;21.94;35.41;95426.19;6126849;28;110279;-59
2023/12/15 12:38:14;;;;;;;2.83;2.63;;;;;;;21.93;35.31;95436.06;6154424;28;109243;-59
2023/12/15 12:41:17;;;;;;;2.93;2.60;;;;;;;21.92;35.11;95447.00;6158645;28;109548;-60
2023/12/15 12:44:21;;;;;;;3.27;2.47;;;;;;;21.92;34.76;95437.16;6131498;28;109267;-60
2023/12/15 12:47:24;;;;;;;2.93;2.63;;;;;;;21.92;35.35;95439.03;6131447;28;110454;-59
2023/12/15 12:50:30;;;;;;;2.77;2.53;;;;;;;21.92;35.09;95447.81;6137059;28;109050;-60
2023/12/15 12:53:35;;;;;;;3.40;2.80;;;;;;;21.90;35.44;95447.31;6157055;28;110213;-59
2023/12/15 12:56:39;;;;;;;3.13;2.80;;;;;;;21.92;35.24;95441.69;6149890;28;109111;-60
2023/12/15 13:00:00;;;;;;;2.80;2.50;;;;;;;21.92;34.75;95445.13;6161375;28;112877;-60
2023/12/15 13:03:04;;;;;;;3.47;2.57;;;;;;;21.91;34.79;95443.56;6160622;28;109413;-60
2023/12/15 13:06:08;;;;;;;2.93;2.40;;;;;;;21.92;35.08;95439.81;6161440;28;109034;-60
2023/12/15 13:09:18;;;;;;;2.93;2.60;;;;;;;21.91;35.11;95434.78;6125977;28;110267;-60
2023/12/15 13:12:21;;;;;;;2.87;2.40;;;;;;;21.94;34.74;95439.50;6145562;28;109049;-60
2023/12/15 13:15:24;;;;;;;2.50;2.30;;;;;;;21.91;34.89;95442.78;6159648;28;109128;-59
2023/12/15 13:18:27;;;;;;;2.13;1.93;;;;;;;21.94;34.96;95450.16;6137899;28;109149;-60
2023/12/15 13:21:31;;;;;;;2.63;2.27;;;;;;;21.94;34.56;95460.84;6131540;28;110305;-60
2023/12/15 13:24:35;;;;;;;2.77;1.90;;;;;;;21.92;35.02;95465.66;6136339;28;109646;-61
2023/12/15 13:27:56;;;;;;;2.40;2.00;;;;;;;21.91;34.79;95470.22;6137338;28;109170;-60
2023/12/15 13:30:59;;;;;;;2.30;2.10;;;;;;;21.92;34.80;95476.31;6126813;28;109950;-60
2023/12/15 13:34:03;;;;;;;2.30;1.90;;;;;;;21.92;34.55;95477.13;6136208;28;109259;-60
2023/12/15 13:37:06;;;;;;;3.20;2.00;;;;;;;21.93;34.94;95481.34;6136487;28;109275;-60
2023/12/15 13:40:12;;;;;;;3.13;2.00;;;;;;;21.94;34.92;95490.16;6136268;28;110552;-60
2023/12/15 13:43:15;;;;;;;2.20;1.97;;;;;;;22.15;34.65;95486.03;6140361;28;109026;-59
2023/12/15 13:46:21;;;;;;;2.00;1.80;;;;;;;22.22;34.75;95496.31;6159710;28;110122;-59
2023/12/15 13:49:24;;;;;;;2.17;1.97;;;;;;;22.31;34.99;95499.84;6159571;28;109567;-60
2023/12/15 13:52:28;;;;;;;2.10;1.90;;;;;;;22.34;34.89;95499.25;6155693;28;111292;-62
2023/12/15 13:55:33;;;;;;;2.20;1.90;;;;;;;22.38;34.31;95502.94;6154029;28;111942;-61
2023/12/15 13:58:36;;;;;;;2.37;1.70;;;;;;;22.39;34.75;95510.63;6140494;28;109247;-59
2023/12/15 14:01:39;;;;;;;2.10;1.50;;;;;;;22.28;34.33;95503.13;6135776;28;109248;-60
2023/12/15 14:04:42;;;;;;;2.10;1.70;;;;;;;22.16;34.61;95502.81;6125462;28;109297;-60
2023/12/15 14:07:45;;;;;;;2.60;1.87;;;;;;;22.08;34.81;95494.41;6135632;28;109516;-60
2023/12/15 14:10:50;;;;;;;1.97;1.73;;;;;;;22.03;34.73;95502.50;6135109;28;109333;-59
2023/12/15 14:13:53;;;;;;;2.00;1.70;;;;;;;22.02;34.62;95500.13;6135696;28;110450;-60
2023/12/15 14:16:56;;;;;;;2.00;1.40;;;;;;;21.99;34.75;95504.16;6124624;28;109313;-60